createdAt,value
2022-09-21T00:02:00.499Z,99291.34
2022-09-21T00:07:02.496Z,99322.00
2022-09-21T00:12:04.808Z,99322.13
2022-09-21T00:17:06.884Z,99317.25
2022-09-21T00:22:09.007Z,99319.06
2022-09-21T00:27:10.966Z,99318.97
2022-09-21T00:32:13.082Z,99320.47
2022-09-21T00:37:15.025Z,99321.91
2022-09-21T00:42:23.388Z,99335.38
2022-09-21T00:47:37.582Z,99324.59
2022-09-21T00:52:43.763Z,99329.97
2022-09-21T00:57:49.361Z,99329.50
2022-09-21T01:02:51.733Z,99309.41
2022-09-21T01:07:55.736Z,99330.66
2022-09-21T01:13:50.221Z,99327.91
2022-09-21T01:19:18.244Z,99332.56
2022-09-21T01:24:51.043Z,99327.59
2022-09-21T01:30:02.374Z,99337.25
2022-09-21T01:35:10.707Z,99330.59
2022-09-21T01:40:30.907Z,99331.66
2022-09-21T01:45:44.498Z,99329.53
2022-09-21T01:50:52.762Z,99333.06
2022-09-21T01:56:41.115Z,99331.19
2022-09-21T02:01:52.392Z,99337.53
2022-09-21T02:06:55.464Z,99338.41
2022-09-21T02:11:58.302Z,99340.72
2022-09-21T02:17:15.538Z,99347.75
2022-09-21T02:22:38.087Z,99341.88
2022-09-21T02:27:56.234Z,99353.53
2022-09-21T02:33:21.087Z,99356.28
2022-09-21T02:38:33.650Z,99351.97
2022-09-21T02:43:51.869Z,99336.31
2022-09-21T02:49:10.906Z,99356.09
2022-09-21T02:54:16.783Z,99353.66
2022-09-21T02:59:19.000Z,99349.91
2022-09-21T03:04:22.011Z,99353.22
2022-09-21T03:09:24.525Z,99356.19
2022-09-21T03:14:26.572Z,99323.31
2022-09-21T03:19:29.488Z,99353.97
2022-09-21T03:24:47.030Z,99353.97
2022-09-21T03:29:49.837Z,99338.50
2022-09-21T03:34:51.983Z,99353.28
2022-09-21T03:39:53.878Z,99352.63
2022-09-21T03:44:56.063Z,99355.63
2022-09-21T03:49:57.962Z,99351.31
2022-09-21T03:55:00.010Z,99344.75
2022-09-21T04:00:04.064Z,99344.38
2022-09-21T04:05:11.131Z,99353.31
2022-09-21T04:10:17.057Z,99340.78
2022-09-21T04:15:19.730Z,99353.09
2022-09-21T04:20:22.254Z,99340.50
2022-09-21T04:25:24.265Z,99344.16
2022-09-21T04:30:26.231Z,99356.66
2022-09-21T04:35:28.278Z,99347.75
2022-09-21T04:40:31.248Z,99354.22
2022-09-21T04:45:34.617Z,99354.03
2022-09-21T04:50:38.228Z,99355.44
2022-09-21T04:55:45.452Z,99362.75
2022-09-21T05:00:52.818Z,99359.69
2022-09-21T05:05:56.917Z,99367.53
2022-09-21T05:10:59.531Z,99358.94
2022-09-21T05:16:02.005Z,99365.44
2022-09-21T05:21:06.255Z,99375.28
2022-09-21T05:26:08.371Z,99372.53
2022-09-21T05:31:20.388Z,99360.69
2022-09-21T05:36:28.201Z,99362.22
2022-09-21T05:41:31.061Z,99360.56
2022-09-21T05:46:38.906Z,99357.97
2022-09-21T05:51:46.977Z,99361.84
2022-09-21T05:56:51.971Z,99357.84
2022-09-21T06:02:14.694Z,99360.25
2022-09-21T06:07:16.773Z,99352.38
2022-09-21T06:12:18.944Z,99355.19
2022-09-21T06:17:21.042Z,99357.84
2022-09-21T06:22:23.091Z,99356.88
2022-09-21T06:27:25.313Z,99362.09
2022-09-21T06:32:27.371Z,99358.16
2022-09-21T06:37:29.411Z,99368.47
2022-09-21T06:42:31.436Z,99367.59
2022-09-21T06:47:33.458Z,99357.53
2022-09-21T06:52:35.554Z,99353.53
2022-09-21T06:57:40.288Z,99349.13
2022-09-21T07:02:45.763Z,99363.28
2022-09-21T07:07:53.245Z,99362.28
2022-09-21T07:12:56.108Z,99353.91
2022-09-21T07:18:06.003Z,99358.63
2022-09-21T07:23:14.268Z,99355.66
2022-09-21T07:28:16.800Z,99366.34
2022-09-21T07:33:18.885Z,99361.19
2022-09-21T07:38:20.951Z,99365.84
2022-09-21T07:43:23.020Z,99369.16
2022-09-21T07:48:25.713Z,99368.34
2022-09-21T07:53:27.760Z,99368.81
2022-09-21T07:58:48.330Z,99366.03
2022-09-21T08:03:52.080Z,99358.09
2022-09-21T08:08:57.677Z,99362.91
2022-09-21T08:14:03.528Z,99359.56
2022-09-21T08:19:05.755Z,99361.84
2022-09-21T08:24:07.807Z,99357.28
2022-09-21T08:29:09.862Z,99362.31
2022-09-21T08:34:12.310Z,99352.16
2022-09-21T08:39:14.400Z,99345.31
2022-09-21T08:44:45.486Z,99351.47
2022-09-21T08:49:59.854Z,99350.59
2022-09-21T08:55:06.312Z,99343.78
2022-09-21T09:00:14.926Z,99343.91
2022-09-21T09:05:54.110Z,99343.19
2022-09-21T09:11:14.843Z,99329.84
2022-09-21T09:16:45.213Z,99327.28
2022-09-21T09:21:47.447Z,99325.75
2022-09-21T09:26:52.018Z,99328.91
2022-09-21T09:31:55.563Z,99324.06
2022-09-21T09:37:11.286Z,99323.38
2022-09-21T09:42:20.194Z,99311.13
2022-09-21T09:47:40.959Z,99316.88
2022-09-21T09:52:44.285Z,99314.81
2022-09-21T09:57:47.672Z,99302.75
2022-09-21T10:02:58.677Z,99310.56
2022-09-21T10:08:01.111Z,99294.19
2022-09-21T10:13:22.097Z,99310.38
2022-09-21T10:18:41.052Z,99301.16
2022-09-21T10:23:51.729Z,99306.56
2022-09-21T10:29:02.399Z,99306.97
2022-09-21T10:34:04.567Z,99294.94
2022-09-21T10:39:23.558Z,99288.97
2022-09-21T10:44:36.390Z,99285.31
2022-09-21T10:49:46.270Z,99299.22
2022-09-21T10:54:52.341Z,99291.84
2022-09-21T10:59:54.532Z,99302.00
2022-09-21T11:05:16.370Z,99302.41
2022-09-21T11:10:18.238Z,99300.09
2022-09-21T11:15:45.910Z,99302.53
2022-09-21T11:20:55.109Z,99297.72
2022-09-21T11:26:26.189Z,99299.53
2022-09-21T11:31:47.435Z,99298.00
2022-09-21T11:37:22.430Z,99286.63
2022-09-21T11:42:30.177Z,99278.81
2022-09-21T11:48:03.927Z,99283.41
2022-09-21T11:53:19.644Z,99279.06
2022-09-21T11:58:52.598Z,99265.28
2022-09-21T12:04:13.538Z,99270.50
2022-09-21T12:09:33.920Z,99261.38
2022-09-21T12:15:09.496Z,99247.84
2022-09-21T12:20:29.690Z,99257.56
2022-09-21T12:25:41.431Z,99261.31
2022-09-21T12:30:48.025Z,99246.09
2022-09-21T12:35:59.241Z,99260.88
2022-09-21T12:41:22.146Z,99255.94
2022-09-21T12:46:30.163Z,99253.53
2022-09-21T12:51:37.131Z,99266.28
2022-09-21T12:56:48.261Z,99264.88
2022-09-21T13:01:57.348Z,99254.69
2022-09-21T13:07:24.191Z,99255.00
2022-09-21T13:12:34.608Z,99262.97
2022-09-21T13:17:36.787Z,99266.41
2022-09-21T13:22:39.979Z,99264.66
2022-09-21T13:28:01.599Z,99267.63
2022-09-21T13:33:25.347Z,99259.16
2022-09-21T13:38:34.316Z,99251.50
2022-09-21T13:43:58.596Z,99249.75
2022-09-21T13:49:12.592Z,99246.38
2022-09-21T13:54:15.048Z,99245.28
2022-09-21T13:59:23.290Z,99239.09
2022-09-21T14:04:37.162Z,99242.81
2022-09-21T14:09:56.149Z,99237.81
2022-09-21T14:15:21.564Z,99240.13
2022-09-21T14:20:30.397Z,99219.25
2022-09-21T14:25:54.912Z,99242.06
2022-09-21T14:31:03.074Z,99226.34
2022-09-21T14:36:09.016Z,99237.38
2022-09-21T14:41:19.865Z,99234.69
2022-09-21T14:46:40.694Z,99238.91
2022-09-21T14:52:04.286Z,99238.69
2022-09-21T14:57:20.824Z,99234.69
2022-09-21T15:02:35.807Z,99255.41
2022-09-21T15:08:00.694Z,99256.09
2022-09-21T15:13:23.454Z,99257.78
2022-09-21T15:18:25.912Z,99255.94
2022-09-21T15:23:39.380Z,99248.00
2022-09-21T15:29:08.836Z,99262.63
2022-09-21T15:34:15.214Z,99270.25
2022-09-21T15:39:29.345Z,99274.31
2022-09-21T15:44:37.175Z,99269.63
2022-09-21T15:49:39.857Z,99272.00
2022-09-21T15:54:49.172Z,99277.38
2022-09-21T15:59:52.204Z,99272.69
2022-09-21T16:04:54.689Z,99273.56
2022-09-21T16:09:57.118Z,99290.59
2022-09-21T16:15:09.129Z,99300.03
2022-09-21T16:20:19.880Z,99294.81
2022-09-21T16:25:50.867Z,99301.94
2022-09-21T16:30:55.196Z,99302.75
2022-09-21T16:35:58.955Z,99312.63
2022-09-21T16:41:02.565Z,99313.44
2022-09-21T16:46:08.329Z,99314.25
2022-09-21T16:51:25.065Z,99306.66
2022-09-21T16:56:27.223Z,99310.34
2022-09-21T17:01:30.421Z,99322.28
2022-09-21T17:06:32.836Z,99314.47
2022-09-21T17:11:35.315Z,99326.16
2022-09-21T17:16:37.948Z,99305.22
2022-09-21T17:21:40.440Z,99340.50
2022-09-21T17:26:44.727Z,99338.47
2022-09-21T17:31:51.208Z,99345.88
2022-09-21T17:36:55.023Z,99363.28
2022-09-21T17:42:02.895Z,99363.06
2022-09-21T17:47:20.717Z,99367.16
2022-09-21T17:52:42.077Z,99363.91
2022-09-21T17:57:56.728Z,99372.53
2022-09-21T18:02:59.353Z,99372.97
2022-09-21T18:08:02.361Z,99371.63
2022-09-21T18:13:19.636Z,99363.97
2022-09-21T18:18:37.979Z,99359.91
2022-09-21T18:24:30.028Z,99360.25
2022-09-21T18:29:42.324Z,99358.91
2022-09-21T18:34:47.381Z,99346.69
2022-09-21T18:40:02.772Z,99359.91
2022-09-21T18:45:12.258Z,99356.47
2022-09-21T18:50:31.941Z,99352.69
2022-09-21T18:55:34.673Z,99351.59
2022-09-21T19:00:37.235Z,99354.53
2022-09-21T19:05:49.946Z,99360.97
2022-09-21T19:11:32.301Z,99367.63
2022-09-21T19:16:53.418Z,99363.53
2022-09-21T19:22:14.534Z,99365.97
2022-09-21T19:27:52.009Z,99363.56
2022-09-21T19:33:00.121Z,99373.56
2022-09-21T19:38:04.035Z,99382.97
2022-09-21T19:43:28.473Z,99379.72
2022-09-21T19:48:42.431Z,99381.75
2022-09-21T19:54:03.249Z,99380.25
2022-09-21T19:59:23.790Z,99366.03
2022-09-21T20:04:46.058Z,99373.97
2022-09-21T20:09:56.514Z,99379.66
2022-09-21T20:15:15.913Z,99372.69
2022-09-21T20:20:26.780Z,99367.75
2022-09-21T20:25:44.476Z,99365.28
2022-09-21T20:30:47.202Z,99370.09
2022-09-21T20:35:50.725Z,99369.09
2022-09-21T20:40:54.117Z,99362.38
2022-09-21T20:45:58.532Z,99360.13
2022-09-21T20:51:02.162Z,99364.47
2022-09-21T20:56:04.325Z,99353.19
2022-09-21T21:01:06.918Z,99348.31
2022-09-21T21:06:09.524Z,99342.94
2022-09-21T21:11:11.936Z,99336.13
2022-09-21T21:16:14.010Z,99334.06
2022-09-21T21:21:15.912Z,99324.03
2022-09-21T21:26:18.120Z,99336.09
2022-09-21T21:31:21.582Z,99337.72
2022-09-21T21:36:23.773Z,99344.66
2022-09-21T21:41:25.675Z,99336.31
2022-09-21T21:46:27.956Z,99344.44
2022-09-21T21:51:30.507Z,99337.47
2022-09-21T21:56:32.526Z,99339.28
2022-09-21T22:01:34.485Z,99347.56
2022-09-21T22:06:38.960Z,99354.09
2022-09-21T22:11:41.034Z,99340.94
2022-09-21T22:16:43.146Z,99348.78
2022-09-21T22:21:51.657Z,99345.06
2022-09-21T22:26:55.939Z,99328.97
2022-09-21T22:31:58.048Z,99342.84
2022-09-21T22:37:00.731Z,99343.69
2022-09-21T22:42:03.715Z,99347.13
2022-09-21T22:47:05.887Z,99344.06
2022-09-21T22:52:07.968Z,99323.97
2022-09-21T22:57:09.913Z,99340.25
2022-09-21T23:02:12.057Z,99330.81
2022-09-21T23:07:16.844Z,99332.16
2022-09-21T23:12:19.051Z,99312.19
2022-09-21T23:17:21.003Z,99333.44
2022-09-21T23:22:23.166Z,99333.41
2022-09-21T23:27:25.525Z,99332.34
2022-09-21T23:32:27.927Z,99327.84
2022-09-21T23:37:30.142Z,99320.03
2022-09-21T23:42:32.229Z,99328.84
2022-09-21T23:47:34.238Z,99320.94
2022-09-21T23:52:36.439Z,99322.97
2022-09-21T23:57:38.548Z,99298.56
